sensor_id;sensor_type;location;lat;lon;timestamp;pressure;altitude;pressure_sealevel;temperature;humidity
30343;BME280;17145;49.902;8.680;'2023-10-31 00:59:44';98320;;;12;61
30343;BME280;17145;49.902;8.680;'2023-10-31 01:02:12';98310;;;12;61
30343;BME280;17145;49.902;8.680;'2023-10-31 01:04:39';98320;;;12;61
30343;BME280;17145;49.902;8.680;'2023-10-31 01:07:06';98340;;;12;61
30343;BME280;17145;49.902;8.680;'2023-10-31 01:09:34';98340;;;12;61
30343;BME280;17145;49.902;8.680;'2023-10-31 01:12:01';98340;;;12;61
30343;BME280;17145;49.902;8.680;'2023-10-31 01:14:29';98340;;;12;61
30343;BME280;17145;49.902;8.680;'2023-10-31 01:16:56';98340;;;12;61
30343;BME280;17145;49.902;8.680;'2023-10-31 01:19:24';98340;;;12;61
30343;BME280;17145;49.902;8.680;'2023-10-31 01:21:51';98360;;;12;61
30343;BME280;17145;49.902;8.680;'2023-10-31 01:24:19';98370;;;12;61
30343;BME280;17145;49.902;8.680;'2023-10-31 01:26:46';98380;;;12;62
30343;BME280;17145;49.902;8.680;'2023-10-31 01:29:14';98380;;;11;61
30343;BME280;17145;49.902;8.680;'2023-10-31 01:31:41';98390;;;12;61
30343;BME280;17145;49.902;8.680;'2023-10-31 01:34:09';98380;;;12;61
30343;BME280;17145;49.902;8.680;'2023-10-31 01:36:36';98390;;;11;61
30343;BME280;17145;49.902;8.680;'2023-10-31 01:39:04';98380;;;12;61
30343;BME280;17145;49.902;8.680;'2023-10-31 01:41:31';98380;;;12;61
30343;BME280;17145;49.902;8.680;'2023-10-31 01:43:59';98390;;;12;61
30343;BME280;17145;49.902;8.680;'2023-10-31 01:46:26';98380;;;11;60
30343;BME280;17145;49.902;8.680;'2023-10-31 01:48:53';98380;;;12;60
30343;BME280;17145;49.902;8.680;'2023-10-31 01:51:21';98380;;;11;60
30343;BME280;17145;49.902;8.680;'2023-10-31 01:53:48';98380;;;11;60
30343;BME280;17145;49.902;8.680;'2023-10-31 01:56:16';98380;;;11;60
30343;BME280;17145;49.902;8.680;'2023-10-31 01:58:43';98390;;;11;60
30343;BME280;17145;49.902;8.680;'2023-10-31 02:01:11';98390;;;11;59
30343;BME280;17145;49.902;8.680;'2023-10-31 02:03:38';98390;;;11;59
30343;BME280;17145;49.902;8.680;'2023-10-31 02:06:06';98390;;;11;59
30343;BME280;17145;49.902;8.680;'2023-10-31 02:08:34';98400;;;11;60
30343;BME280;17145;49.902;8.680;'2023-10-31 02:11:02';98400;;;11;60
30343;BME280;17145;49.902;8.680;'2023-10-31 02:13:30';98390;;;11;60
30343;BME280;17145;49.902;8.680;'2023-10-31 02:15:57';98390;;;11;60
30343;BME280;17145;49.902;8.680;'2023-10-31 02:18:25';98390;;;11;59
30343;BME280;17145;49.902;8.680;'2023-10-31 02:20:52';98390;;;11;59
30343;BME280;17145;49.902;8.680;'2023-10-31 02:23:20';98390;;;11;59
30343;BME280;17145;49.902;8.680;'2023-10-31 02:25:47';98400;;;11;59
30343;BME280;17145;49.902;8.680;'2023-10-31 02:28:15';98410;;;11;59
30343;BME280;17145;49.902;8.680;'2023-10-31 02:30:42';98410;;;11;58
30343;BME280;17145;49.902;8.680;'2023-10-31 02:33:09';98410;;;12;58
30343;BME280;17145;49.902;8.680;'2023-10-31 02:35:37';98400;;;11;58
30343;BME280;17145;49.902;8.680;'2023-10-31 02:38:04';98400;;;11;58
30343;BME280;17145;49.902;8.680;'2023-10-31 02:40:31';98400;;;11;57
30343;BME280;17145;49.902;8.680;'2023-10-31 02:42:59';98410;;;11;58
30343;BME280;17145;49.902;8.680;'2023-10-31 02:45:26';98420;;;11;58
30343;BME280;17145;49.902;8.680;'2023-10-31 02:47:54';98420;;;11;58
30343;BME280;17145;49.902;8.680;'2023-10-31 02:50:21';98410;;;11;57
30343;BME280;17145;49.902;8.680;'2023-10-31 02:52:49';98420;;;11;57
30343;BME280;17145;49.902;8.680;'2023-10-31 02:55:17';98420;;;11;57
30343;BME280;17145;49.902;8.680;'2023-10-31 02:57:45';98420;;;11;58
30343;BME280;17145;49.902;8.680;'2023-10-31 03:00:14';98420;;;11;58
30343;BME280;17145;49.902;8.680;'2023-10-31 03:02:41';98410;;;11;58
30343;BME280;17145;49.902;8.680;'2023-10-31 03:05:10';98410;;;11;58
30343;BME280;17145;49.902;8.680;'2023-10-31 03:07:37';98410;;;11;58
30343;BME280;17145;49.902;8.680;'2023-10-31 03:10:13';98410;;;11;58
30343;BME280;17145;49.902;8.680;'2023-10-31 03:12:40';98410;;;11;57
30343;BME280;17145;49.902;8.680;'2023-10-31 03:15:08';98400;;;10;57
30343;BME280;17145;49.902;8.680;'2023-10-31 03:17:36';98410;;;11;58
30343;BME280;17145;49.902;8.680;'2023-10-31 03:20:04';98410;;;10;58
30343;BME280;17145;49.902;8.680;'2023-10-31 03:22:32';98420;;;10;58
30343;BME280;17145;49.902;8.680;'2023-10-31 03:24:59';98420;;;10;58
30343;BME280;17145;49.902;8.680;'2023-10-31 03:27:27';98430;;;10;58
30343;BME280;17145;49.902;8.680;'2023-10-31 03:29:54';98430;;;10;58
30343;BME280;17145;49.902;8.680;'2023-10-31 03:32:21';98440;;;10;58
30343;BME280;17145;49.902;8.680;'2023-10-31 03:34:49';98440;;;10;58
30343;BME280;17145;49.902;8.680;'2023-10-31 03:37:17';98440;;;11;58
30343;BME280;17145;49.902;8.680;'2023-10-31 03:39:44';98440;;;11;58
30343;BME280;17145;49.902;8.680;'2023-10-31 03:42:11';98440;;;10;58
30343;BME280;17145;49.902;8.680;'2023-10-31 03:44:39';98450;;;10;57
30343;BME280;17145;49.902;8.680;'2023-10-31 03:47:06';98450;;;10;58
30343;BME280;17145;49.902;8.680;'2023-10-31 03:49:33';98450;;;10;58
30343;BME280;17145;49.902;8.680;'2023-10-31 03:52:01';98440;;;10;58
30343;BME280;17145;49.902;8.680;'2023-10-31 03:54:28';98440;;;10;58
30343;BME280;17145;49.902;8.680;'2023-10-31 03:56:56';98450;;;11;58
30343;BME280;17145;49.902;8.680;'2023-10-31 03:59:23';98460;;;11;58
30343;BME280;17145;49.902;8.680;'2023-10-31 04:01:51';98470;;;11;58
30343;BME280;17145;49.902;8.680;'2023-10-31 04:04:19';98480;;;11;58
30343;BME280;17145;49.902;8.680;'2023-10-31 04:06:46';98480;;;11;58
30343;BME280;17145;49.902;8.680;'2023-10-31 04:09:14';98490;;;11;58
30343;BME280;17145;49.902;8.680;'2023-10-31 04:11:41';98480;;;10;58
30343;BME280;17145;49.902;8.680;'2023-10-31 04:14:09';98490;;;10;58
30343;BME280;17145;49.902;8.680;'2023-10-31 04:16:36';98480;;;10;58
30343;BME280;17145;49.902;8.680;'2023-10-31 04:19:04';98470;;;10;58
30343;BME280;17145;49.902;8.680;'2023-10-31 04:21:31';98480;;;10;58
30343;BME280;17145;49.902;8.680;'2023-10-31 04:23:59';98480;;;10;58
30343;BME280;17145;49.902;8.680;'2023-10-31 04:26:26';98490;;;10;57
30343;BME280;17145;49.902;8.680;'2023-10-31 04:28:54';98490;;;10;58
30343;BME280;17145;49.902;8.680;'2023-10-31 04:31:21';98500;;;10;58
30343;BME280;17145;49.902;8.680;'2023-10-31 04:33:49';98510;;;10;59
30343;BME280;17145;49.902;8.680;'2023-10-31 04:36:17';98520;;;10;59
30343;BME280;17145;49.902;8.680;'2023-10-31 04:38:44';98530;;;10;59
30343;BME280;17145;49.902;8.680;'2023-10-31 04:41:11';98530;;;10;59
30343;BME280;17145;49.902;8.680;'2023-10-31 04:43:39';98530;;;11;59
30343;BME280;17145;49.902;8.680;'2023-10-31 04:46:07';98540;;;10;60
30343;BME280;17145;49.902;8.680;'2023-10-31 04:48:34';98540;;;10;60
30343;BME280;17145;49.902;8.680;'2023-10-31 04:51:02';98540;;;10;60
30343;BME280;17145;49.902;8.680;'2023-10-31 04:53:29';98540;;;10;60
30343;BME280;17145;49.902;8.680;'2023-10-31 04:55:59';98550;;;10;60
30343;BME280;17145;49.902;8.680;'2023-10-31 04:58:26';98550;;;10;60
30343;BME280;17145;49.902;8.680;'2023-10-31 05:00:53';98540;;;10;60
30343;BME280;17145;49.902;8.680;'2023-10-31 05:03:21';98540;;;10;60
30343;BME280;17145;49.902;8.680;'2023-10-31 05:05:48';98540;;;10;59
30343;BME280;17145;49.902;8.680;'2023-10-31 05:08:16';98540;;;10;59
30343;BME280;17145;49.902;8.680;'2023-10-31 05:10:43';98540;;;10;59
30343;BME280;17145;49.902;8.680;'2023-10-31 05:13:11';98540;;;10;59
30343;BME280;17145;49.902;8.680;'2023-10-31 05:15:38';98540;;;10;59
30343;BME280;17145;49.902;8.680;'2023-10-31 05:18:06';98540;;;10;59
30343;BME280;17145;49.902;8.680;'2023-10-31 05:20:33';98540;;;10;59
30343;BME280;17145;49.902;8.680;'2023-10-31 05:23:00';98550;;;10;58
30343;BME280;17145;49.902;8.680;'2023-10-31 05:25:28';98550;;;10;58
30343;BME280;17145;49.902;8.680;'2023-10-31 05:27:55';98560;;;10;59
30343;BME280;17145;49.902;8.680;'2023-10-31 05:30:23';98560;;;10;58
30343;BME280;17145;49.902;8.680;'2023-10-31 05:32:50';98560;;;10;58
30343;BME280;17145;49.902;8.680;'2023-10-31 05:35:18';98570;;;10;58
30343;BME280;17145;49.902;8.680;'2023-10-31 05:37:45';98570;;;10;58
30343;BME280;17145;49.902;8.680;'2023-10-31 05:40:13';98570;;;11;58
30343;BME280;17145;49.902;8.680;'2023-10-31 05:42:40';98570;;;11;58
30343;BME280;17145;49.902;8.680;'2023-10-31 05:45:09';98570;;;11;58
30343;BME280;17145;49.902;8.680;'2023-10-31 05:47:36';98570;;;11;58
30343;BME280;17145;49.902;8.680;'2023-10-31 05:50:04';98570;;;11;57
30343;BME280;17145;49.902;8.680;'2023-10-31 05:52:31';98570;;;11;58
30343;BME280;17145;49.902;8.680;'2023-10-31 05:54:59';98580;;;11;58
30343;BME280;17145;49.902;8.680;'2023-10-31 05:57:26';98570;;;11;58
30343;BME280;17145;49.902;8.680;'2023-10-31 05:59:53';98570;;;10;57
30343;BME280;17145;49.902;8.680;'2023-10-31 06:02:21';98570;;;11;57
30343;BME280;17145;49.902;8.680;'2023-10-31 06:04:48';98570;;;11;57
30343;BME280;17145;49.902;8.680;'2023-10-31 06:07:16';98570;;;11;57
30343;BME280;17145;49.902;8.680;'2023-10-31 06:09:43';98580;;;11;57
30343;BME280;17145;49.902;8.680;'2023-10-31 06:12:11';98580;;;11;57
30343;BME280;17145;49.902;8.680;'2023-10-31 06:14:40';98590;;;10;57
30343;BME280;17145;49.902;8.680;'2023-10-31 06:17:07';98590;;;10;56
30343;BME280;17145;49.902;8.680;'2023-10-31 06:19:34';98590;;;11;57
30343;BME280;17145;49.902;8.680;'2023-10-31 06:22:02';98590;;;11;56
30343;BME280;17145;49.902;8.680;'2023-10-31 06:24:29';98590;;;11;56
30343;BME280;17145;49.902;8.680;'2023-10-31 06:26:57';98590;;;11;56
30343;BME280;17145;49.902;8.680;'2023-10-31 06:29:24';98590;;;11;57
30343;BME280;17145;49.902;8.680;'2023-10-31 06:31:52';98600;;;11;57
30343;BME280;17145;49.902;8.680;'2023-10-31 06:34:19';98590;;;11;56
30343;BME280;17145;49.902;8.680;'2023-10-31 06:36:46';98590;;;11;56
30343;BME280;17145;49.902;8.680;'2023-10-31 06:39:14';98590;;;10;56
30343;BME280;17145;49.902;8.680;'2023-10-31 06:41:41';98590;;;10;57
30343;BME280;17145;49.902;8.680;'2023-10-31 06:44:09';98600;;;11;57
30343;BME280;17145;49.902;8.680;'2023-10-31 06:46:38';98600;;;10;57
30343;BME280;17145;49.902;8.680;'2023-10-31 06:49:07';98600;;;11;57
30343;BME280;17145;49.902;8.680;'2023-10-31 06:51:34';98610;;;10;57
30343;BME280;17145;49.902;8.680;'2023-10-31 06:54:02';98610;;;10;57
30343;BME280;17145;49.902;8.680;'2023-10-31 06:56:29';98620;;;11;56
30343;BME280;17145;49.902;8.680;'2023-10-31 06:58:56';98620;;;10;57
30343;BME280;17145;49.902;8.680;'2023-10-31 07:01:23';98620;;;10;56
30343;BME280;17145;49.902;8.680;'2023-10-31 07:03:51';98620;;;10;56
30343;BME280;17145;49.902;8.680;'2023-10-31 07:06:18';98630;;;11;56
30343;BME280;17145;49.902;8.680;'2023-10-31 07:08:45';98630;;;10;56
30343;BME280;17145;49.902;8.680;'2023-10-31 07:11:13';98640;;;10;56
30343;BME280;17145;49.902;8.680;'2023-10-31 07:13:40';98640;;;10;56
30343;BME280;17145;49.902;8.680;'2023-10-31 07:16:08';98640;;;10;57
30343;BME280;17145;49.902;8.680;'2023-10-31 07:18:35';98650;;;10;56
30343;BME280;17145;49.902;8.680;'2023-10-31 07:21:03';98650;;;10;56
30343;BME280;17145;49.902;8.680;'2023-10-31 07:23:30';98650;;;10;56
30343;BME280;17145;49.902;8.680;'2023-10-31 07:25:58';98660;;;11;56
30343;BME280;17145;49.902;8.680;'2023-10-31 07:28:25';98660;;;10;56
30343;BME280;17145;49.902;8.680;'2023-10-31 07:30:52';98670;;;10;56
30343;BME280;17145;49.902;8.680;'2023-10-31 07:33:24';98670;;;11;56
30343;BME280;17145;49.902;8.680;'2023-10-31 07:35:52';98680;;;11;57
30343;BME280;17145;49.902;8.680;'2023-10-31 07:38:19';98680;;;10;56
30343;BME280;17145;49.902;8.680;'2023-10-31 07:40:47';98680;;;10;56
30343;BME280;17145;49.902;8.680;'2023-10-31 07:43:14';98690;;;10;56
30343;BME280;17145;49.902;8.680;'2023-10-31 07:45:42';98690;;;10;56
30343;BME280;17145;49.902;8.680;'2023-10-31 07:48:09';98700;;;10;56
30343;BME280;17145;49.902;8.680;'2023-10-31 07:50:36';98710;;;11;56
30343;BME280;17145;49.902;8.680;'2023-10-31 07:53:04';98710;;;10;56
30343;BME280;17145;49.902;8.680;'2023-10-31 07:55:31';98710;;;10;56
30343;BME280;17145;49.902;8.680;'2023-10-31 07:57:58';98720;;;10;56
30343;BME280;17145;49.902;8.680;'2023-10-31 08:00:27';98720;;;11;56
30343;BME280;17145;49.902;8.680;'2023-10-31 08:02:54';98720;;;10;56
30343;BME280;17145;49.902;8.680;'2023-10-31 08:05:21';98720;;;11;56
30343;BME280;17145;49.902;8.680;'2023-10-31 08:07:49';98730;;;10;56
30343;BME280;17145;49.902;8.680;'2023-10-31 08:10:16';98720;;;11;56
30343;BME280;17145;49.902;8.680;'2023-10-31 08:12:43';98730;;;11;55
30343;BME280;17145;49.902;8.680;'2023-10-31 08:15:11';98740;;;11;56
30343;BME280;17145;49.902;8.680;'2023-10-31 08:17:38';98740;;;11;55
30343;BME280;17145;49.902;8.680;'2023-10-31 08:20:08';98750;;;11;55
30343;BME280;17145;49.902;8.680;'2023-10-31 08:22:35';98750;;;11;55
30343;BME280;17145;49.902;8.680;'2023-10-31 08:25:03';98750;;;11;55
30343;BME280;17145;49.902;8.680;'2023-10-31 08:27:30';98760;;;10;55
30343;BME280;17145;49.902;8.680;'2023-10-31 08:29:58';98760;;;11;55
30343;BME280;17145;49.902;8.680;'2023-10-31 08:32:26';98760;;;11;55
30343;BME280;17145;49.902;8.680;'2023-10-31 08:34:53';98760;;;11;55
30343;BME280;17145;49.902;8.680;'2023-10-31 08:37:20';98760;;;11;55
30343;BME280;17145;49.902;8.680;'2023-10-31 08:39:48';98760;;;11;56
30343;BME280;17145;49.902;8.680;'2023-10-31 08:42:15';98760;;;11;55
30343;BME280;17145;49.902;8.680;'2023-10-31 08:44:43';98760;;;11;55
30343;BME280;17145;49.902;8.680;'2023-10-31 08:47:10';98760;;;10;55
30343;BME280;17145;49.902;8.680;'2023-10-31 08:49:37';98770;;;10;55
30343;BME280;17145;49.902;8.680;'2023-10-31 08:52:05';98770;;;10;55
30343;BME280;17145;49.902;8.680;'2023-10-31 08:54:33';98780;;;10;55
30343;BME280;17145;49.902;8.680;'2023-10-31 08:57:00';98780;;;10;56
30343;BME280;17145;49.902;8.680;'2023-10-31 08:59:27';98780;;;10;55
30343;BME280;17145;49.902;8.680;'2023-10-31 09:01:55';98790;;;11;56
30343;BME280;17145;49.902;8.680;'2023-10-31 09:04:22';98780;;;10;55
30343;BME280;17145;49.902;8.680;'2023-10-31 09:06:50';98780;;;10;55
30343;BME280;17145;49.902;8.680;'2023-10-31 09:09:17';98780;;;10;55
30343;BME280;17145;49.902;8.680;'2023-10-31 09:11:44';98780;;;10;55
30343;BME280;17145;49.902;8.680;'2023-10-31 09:14:12';98780;;;11;55
30343;BME280;17145;49.902;8.680;'2023-10-31 09:16:39';98790;;;11;55
30343;BME280;17145;49.902;8.680;'2023-10-31 09:19:07';98800;;;11;55
30343;BME280;17145;49.902;8.680;'2023-10-31 09:21:34';98790;;;11;55
30343;BME280;17145;49.902;8.680;'2023-10-31 09:24:02';98800;;;11;55
30343;BME280;17145;49.902;8.680;'2023-10-31 09:26:30';98800;;;11;55
30343;BME280;17145;49.902;8.680;'2023-10-31 09:28:57';98800;;;11;54
30343;BME280;17145;49.902;8.680;'2023-10-31 09:31:25';98800;;;11;54
30343;BME280;17145;49.902;8.680;'2023-10-31 09:33:52';98800;;;11;54
30343;BME280;17145;49.902;8.680;'2023-10-31 09:36:19';98810;;;11;54
30343;BME280;17145;49.902;8.680;'2023-10-31 09:38:47';98810;;;11;54
30343;BME280;17145;49.902;8.680;'2023-10-31 09:41:14';98810;;;11;54
30343;BME280;17145;49.902;8.680;'2023-10-31 09:43:42';98810;;;11;54
30343;BME280;17145;49.902;8.680;'2023-10-31 09:46:09';98820;;;11;54
30343;BME280;17145;49.902;8.680;'2023-10-31 09:48:36';98810;;;11;54
30343;BME280;17145;49.902;8.680;'2023-10-31 09:51:04';98820;;;11;54
30343;BME280;17145;49.902;8.680;'2023-10-31 09:53:31';98820;;;11;54
30343;BME280;17145;49.902;8.680;'2023-10-31 09:55:59';98820;;;11;53
30343;BME280;17145;49.902;8.680;'2023-10-31 09:58:28';98840;;;11;53
30343;BME280;17145;49.902;8.680;'2023-10-31 10:00:55';98830;;;11;53
30343;BME280;17145;49.902;8.680;'2023-10-31 10:03:23';98840;;;11;53
30343;BME280;17145;49.902;8.680;'2023-10-31 10:05:50';98850;;;11;53
30343;BME280;17145;49.902;8.680;'2023-10-31 10:08:17';98850;;;11;53
30343;BME280;17145;49.902;8.680;'2023-10-31 10:10:45';98850;;;11;53
30343;BME280;17145;49.902;8.680;'2023-10-31 10:13:13';98850;;;11;53
30343;BME280;17145;49.902;8.680;'2023-10-31 10:15:41';98860;;;10;53
30343;BME280;17145;49.902;8.680;'2023-10-31 10:18:08';98850;;;11;53
30343;BME280;17145;49.902;8.680;'2023-10-31 10:20:35';98860;;;11;53
30343;BME280;17145;49.902;8.680;'2023-10-31 10:23:03';98870;;;11;53
30343;BME280;17145;49.902;8.680;'2023-10-31 10:25:30';98870;;;11;53
30343;BME280;17145;49.902;8.680;'2023-10-31 10:27:57';98890;;;11;53
30343;BME280;17145;49.902;8.680;'2023-10-31 10:30:25';98890;;;11;53
30343;BME280;17145;49.902;8.680;'2023-10-31 10:32:53';98890;;;11;53
30343;BME280;17145;49.902;8.680;'2023-10-31 10:35:20';98900;;;11;53
30343;BME280;17145;49.902;8.680;'2023-10-31 10:37:47';98900;;;11;53
30343;BME280;17145;49.902;8.680;'2023-10-31 10:40:15';98900;;;11;53
30343;BME280;17145;49.902;8.680;'2023-10-31 10:42:44';98890;;;11;53
30343;BME280;17145;49.902;8.680;'2023-10-31 10:45:11';98890;;;11;53
30343;BME280;17145;49.902;8.680;'2023-10-31 10:47:39';98900;;;11;53
30343;BME280;17145;49.902;8.680;'2023-10-31 10:50:07';98900;;;10;52
30343;BME280;17145;49.902;8.680;'2023-10-31 10:52:36';98910;;;11;52
30343;BME280;17145;49.902;8.680;'2023-10-31 10:55:05';98910;;;11;52
30343;BME280;17145;49.902;8.680;'2023-10-31 10:57:32';98900;;;11;52
30343;BME280;17145;49.902;8.680;'2023-10-31 11:00:00';98900;;;11;52
30343;BME280;17145;49.902;8.680;'2023-10-31 11:02:27';98900;;;11;52
30343;BME280;17145;49.902;8.680;'2023-10-31 11:04:54';98900;;;11;51
30343;BME280;17145;49.902;8.680;'2023-10-31 11:07:22';98900;;;10;52
30343;BME280;17145;49.902;8.680;'2023-10-31 11:09:49';98910;;;11;52
30343;BME280;17145;49.902;8.680;'2023-10-31 11:12:17';98910;;;11;53
30343;BME280;17145;49.902;8.680;'2023-10-31 11:14:45';98900;;;11;52
30343;BME280;17145;49.902;8.680;'2023-10-31 11:17:17';98900;;;11;52
30343;BME280;17145;49.902;8.680;'2023-10-31 11:19:45';98900;;;11;52
30343;BME280;17145;49.902;8.680;'2023-10-31 11:22:12';98900;;;12;52
30343;BME280;17145;49.902;8.680;'2023-10-31 11:24:41';98900;;;11;51
30343;BME280;17145;49.902;8.680;'2023-10-31 11:27:08';98890;;;11;51
30343;BME280;17145;49.902;8.680;'2023-10-31 11:29:38';98900;;;11;51
30343;BME280;17145;49.902;8.680;'2023-10-31 11:32:06';98890;;;11;51
30343;BME280;17145;49.902;8.680;'2023-10-31 11:34:33';98900;;;11;51
30343;BME280;17145;49.902;8.680;'2023-10-31 11:37:04';98900;;;11;51
30343;BME280;17145;49.902;8.680;'2023-10-31 11:39:33';98900;;;11;50
30343;BME280;17145;49.902;8.680;'2023-10-31 11:42:01';98900;;;12;50
30343;BME280;17145;49.902;8.680;'2023-10-31 11:44:34';98890;;;12;50
30343;BME280;17145;49.902;8.680;'2023-10-31 11:47:03';98890;;;11;50
30343;BME280;17145;49.902;8.680;'2023-10-31 11:49:34';98890;;;11;50
30343;BME280;17145;49.902;8.680;'2023-10-31 11:52:13';98890;;;12;49
30343;BME280;17145;49.902;8.680;'2023-10-31 11:54:48';98890;;;12;49
30343;BME280;17145;49.902;8.680;'2023-10-31 11:57:24';98900;;;12;49
30343;BME280;17145;49.902;8.680;'2023-10-31 11:59:55';98900;;;12;49
30343;BME280;17145;49.902;8.680;'2023-10-31 12:02:23';98900;;;12;49
30343;BME280;17145;49.902;8.680;'2023-10-31 12:04:52';98900;;;12;48
30343;BME280;17145;49.902;8.680;'2023-10-31 12:07:20';98900;;;11;48
30343;BME280;17145;49.902;8.680;'2023-10-31 12:09:49';98890;;;12;49
30343;BME280;17145;49.902;8.680;'2023-10-31 12:12:18';98900;;;12;49
30343;BME280;17145;49.902;8.680;'2023-10-31 12:14:46';98890;;;12;49
30343;BME280;17145;49.902;8.680;'2023-10-31 12:17:23';98890;;;12;49
30343;BME280;17145;49.902;8.680;'2023-10-31 12:19:52';98890;;;12;48
30343;BME280;17145;49.902;8.680;'2023-10-31 12:22:19';98880;;;12;48
30343;BME280;17145;49.902;8.680;'2023-10-31 12:24:49';98890;;;12;47
30343;BME280;17145;49.902;8.680;'2023-10-31 12:27:18';98890;;;13;48
30343;BME280;17145;49.902;8.680;'2023-10-31 12:29:47';98890;;;13;46
30343;BME280;17145;49.902;8.680;'2023-10-31 12:32:14';98900;;;12;47
30343;BME280;17145;49.902;8.680;'2023-10-31 12:34:42';98900;;;12;47
30343;BME280;17145;49.902;8.680;'2023-10-31 12:40:10';98890;;;12;47
30343;BME280;17145;49.902;8.680;'2023-10-31 12:42:37';98900;;;12;47
30343;BME280;17145;49.902;8.680;'2023-10-31 12:45:07';98900;;;13;46
30343;BME280;17145;49.902;8.680;'2023-10-31 12:47:46';98900;;;13;47
30343;BME280;17145;49.902;8.680;'2023-10-31 12:50:13';98900;;;13;47
30343;BME280;17145;49.902;8.680;'2023-10-31 12:52:41';98900;;;13;47
30343;BME280;17145;49.902;8.680;'2023-10-31 12:55:09';98900;;;13;47
30343;BME280;17145;49.902;8.680;'2023-10-31 12:57:39';98900;;;13;47
30343;BME280;17145;49.902;8.680;'2023-10-31 13:00:12';98900;;;13;46
30343;BME280;17145;49.902;8.680;'2023-10-31 13:02:39';98900;;;13;47
30343;BME280;17145;49.902;8.680;'2023-10-31 13:05:09';98910;;;13;45
30343;BME280;17145;49.902;8.680;'2023-10-31 13:07:43';98910;;;14;46
30343;BME280;17145;49.902;8.680;'2023-10-31 13:10:12';98910;;;14;45
30343;BME280;17145;49.902;8.680;'2023-10-31 13:12:39';98910;;;14;45
30343;BME280;17145;49.902;8.680;'2023-10-31 13:15:07';98910;;;14;44
30343;BME280;17145;49.902;8.680;'2023-10-31 13:17:35';98920;;;15;43
30343;BME280;17145;49.902;8.680;'2023-10-31 13:20:04';98920;;;14;43
30343;BME280;17145;49.902;8.680;'2023-10-31 13:22:31';98910;;;15;43
30343;BME280;17145;49.902;8.680;'2023-10-31 13:25:02';98920;;;15;43
30343;BME280;17145;49.902;8.680;'2023-10-31 13:27:43';98920;;;15;43
30343;BME280;17145;49.902;8.680;'2023-10-31 13:30:12';98930;;;15;43
30343;BME280;17145;49.902;8.680;'2023-10-31 13:32:40';98920;;;15;44
30343;BME280;17145;49.902;8.680;'2023-10-31 13:35:10';98920;;;15;44
30343;BME280;17145;49.902;8.680;'2023-10-31 13:37:38';98920;;;15;41
30343;BME280;17145;49.902;8.680;'2023-10-31 13:40:07';98920;;;16;42
30343;BME280;17145;49.902;8.680;'2023-10-31 13:42:35';98930;;;16;41
30343;BME280;17145;49.902;8.680;'2023-10-31 13:45:03';98930;;;16;40
30343;BME280;17145;49.902;8.680;'2023-10-31 13:47:30';98940;;;16;40
30343;BME280;17145;49.902;8.680;'2023-10-31 13:50:07';98940;;;16;40
30343;BME280;17145;49.902;8.680;'2023-10-31 13:52:46';98940;;;15;40
30343;BME280;17145;49.902;8.680;'2023-10-31 13:55:15';98940;;;15;41
30343;BME280;17145;49.902;8.680;'2023-10-31 13:57:42';98940;;;15;41
30343;BME280;17145;49.902;8.680;'2023-10-31 14:00:11';98940;;;15;41
30343;BME280;17145;49.902;8.680;'2023-10-31 14:02:39';98940;;;15;41
30343;BME280;17145;49.902;8.680;'2023-10-31 14:05:11';98950;;;15;42
30343;BME280;17145;49.902;8.680;'2023-10-31 14:07:39';98950;;;15;41
30343;BME280;17145;49.902;8.680;'2023-10-31 14:10:08';98950;;;15;41
30343;BME280;17145;49.902;8.680;'2023-10-31 14:12:36';98950;;;15;42
30343;BME280;17145;49.902;8.680;'2023-10-31 14:15:04';98950;;;15;42
30343;BME280;17145;49.902;8.680;'2023-10-31 14:17:32';98950;;;14;41
30343;BME280;17145;49.902;8.680;'2023-10-31 14:19:59';98960;;;15;42
30343;BME280;17145;49.902;8.680;'2023-10-31 14:22:26';98960;;;14;42
30343;BME280;17145;49.902;8.680;'2023-10-31 14:24:54';98950;;;14;43
30343;BME280;17145;49.902;8.680;'2023-10-31 14:27:21';98950;;;14;42
30343;BME280;17145;49.902;8.680;'2023-10-31 14:29:49';98960;;;14;42
30343;BME280;17145;49.902;8.680;'2023-10-31 14:32:16';98960;;;14;43
30343;BME280;17145;49.902;8.680;'2023-10-31 14:34:44';98960;;;14;43
30343;BME280;17145;49.902;8.680;'2023-10-31 14:37:11';98960;;;14;44
30343;BME280;17145;49.902;8.680;'2023-10-31 14:39:39';98960;;;14;45
30343;BME280;17145;49.902;8.680;'2023-10-31 14:42:06';98960;;;14;45
30343;BME280;17145;49.902;8.680;'2023-10-31 14:44:34';98960;;;14;44
30343;BME280;17145;49.902;8.680;'2023-10-31 14:47:02';98960;;;14;44
30343;BME280;17145;49.902;8.680;'2023-10-31 14:49:29';98960;;;14;44
30343;BME280;17145;49.902;8.680;'2023-10-31 14:51:57';98960;;;14;44
30343;BME280;17145;49.902;8.680;'2023-10-31 14:54:24';98960;;;14;43
30343;BME280;17145;49.902;8.680;'2023-10-31 14:56:52';98960;;;14;44
30343;BME280;17145;49.902;8.680;'2023-10-31 14:59:20';98960;;;14;44
30343;BME280;17145;49.902;8.680;'2023-10-31 15:01:47';98960;;;14;43
30343;BME280;17145;49.902;8.680;'2023-10-31 15:04:15';98970;;;14;43
30343;BME280;17145;49.902;8.680;'2023-10-31 15:06:42';98970;;;14;43
30343;BME280;17145;49.902;8.680;'2023-10-31 15:09:11';98970;;;14;43
30343;BME280;17145;49.902;8.680;'2023-10-31 15:11:40';98970;;;14;43
30343;BME280;17145;49.902;8.680;'2023-10-31 15:14:08';98980;;;14;43
30343;BME280;17145;49.902;8.680;'2023-10-31 15:16:35';98980;;;14;43
30343;BME280;17145;49.902;8.680;'2023-10-31 15:19:03';98980;;;14;43
30343;BME280;17145;49.902;8.680;'2023-10-31 15:21:31';98980;;;14;44
30343;BME280;17145;49.902;8.680;'2023-10-31 15:23:58';98980;;;14;44
30343;BME280;17145;49.902;8.680;'2023-10-31 15:26:26';98990;;;14;43